sensor_id;sensor_type;location;lat;lon;timestamp;P1;durP1;ratioP1;P2;durP2;ratioP2
49384;SDS011;36795;45.028;38.968;2023-04-24T00:00:53;18.00;;;5.03;;
49384;SDS011;36795;45.028;38.968;2023-04-24T00:03:41;19.67;;;4.85;;
49384;SDS011;36795;45.028;38.968;2023-04-24T00:06:27;22.42;;;5.45;;
49384;SDS011;36795;45.028;38.968;2023-04-24T00:09:18;19.62;;;5.00;;
49384;SDS011;36795;45.028;38.968;2023-04-24T00:12:04;21.48;;;5.78;;
49384;SDS011;36795;45.028;38.968;2023-04-24T00:14:51;14.80;;;4.50;;
49384;SDS011;36795;45.028;38.968;2023-04-24T00:17:37;18.08;;;5.62;;
49384;SDS011;36795;45.028;38.968;2023-04-24T00:20:23;19.15;;;5.62;;
49384;SDS011;36795;45.028;38.968;2023-04-24T00:23:09;20.88;;;5.50;;
49384;SDS011;36795;45.028;38.968;2023-04-24T00:25:56;17.75;;;5.30;;
49384;SDS011;36795;45.028;38.968;2023-04-24T00:28:42;19.08;;;5.25;;
49384;SDS011;36795;45.028;38.968;2023-04-24T00:31:29;17.17;;;5.40;;
49384;SDS011;36795;45.028;38.968;2023-04-24T00:34:16;20.88;;;5.25;;
49384;SDS011;36795;45.028;38.968;2023-04-24T00:37:03;18.62;;;4.93;;
49384;SDS011;36795;45.028;38.968;2023-04-24T00:39:50;19.60;;;5.50;;
49384;SDS011;36795;45.028;38.968;2023-04-24T00:42:36;18.62;;;5.62;;
49384;SDS011;36795;45.028;38.968;2023-04-24T00:45:23;18.25;;;5.50;;
49384;SDS011;36795;45.028;38.968;2023-04-24T00:48:09;19.12;;;5.28;;
49384;SDS011;36795;45.028;38.968;2023-04-24T00:50:58;19.05;;;5.32;;
49384;SDS011;36795;45.028;38.968;2023-04-24T00:53:44;18.77;;;5.47;;
49384;SDS011;36795;45.028;38.968;2023-04-24T00:56:30;18.58;;;5.60;;
49384;SDS011;36795;45.028;38.968;2023-04-24T00:59:17;24.08;;;5.78;;
49384;SDS011;36795;45.028;38.968;2023-04-24T01:02:02;19.92;;;5.60;;
49384;SDS011;36795;45.028;38.968;2023-04-24T01:04:50;20.95;;;6.10;;
49384;SDS011;36795;45.028;38.968;2023-04-24T01:07:36;18.00;;;5.10;;
49384;SDS011;36795;45.028;38.968;2023-04-24T01:10:23;17.12;;;5.40;;
49384;SDS011;36795;45.028;38.968;2023-04-24T01:13:10;17.83;;;5.70;;
49384;SDS011;36795;45.028;38.968;2023-04-24T01:15:57;19.65;;;5.90;;
49384;SDS011;36795;45.028;38.968;2023-04-24T01:18:43;20.52;;;5.50;;
49384;SDS011;36795;45.028;38.968;2023-04-24T01:21:30;18.00;;;4.95;;
49384;SDS011;36795;45.028;38.968;2023-04-24T01:24:20;21.02;;;5.80;;
49384;SDS011;36795;45.028;38.968;2023-04-24T01:27:07;22.27;;;5.57;;
49384;SDS011;36795;45.028;38.968;2023-04-24T01:29:54;18.55;;;5.20;;
49384;SDS011;36795;45.028;38.968;2023-04-24T01:32:40;18.87;;;5.25;;
49384;SDS011;36795;45.028;38.968;2023-04-24T01:35:28;21.00;;;6.07;;
49384;SDS011;36795;45.028;38.968;2023-04-24T01:38:15;18.73;;;5.80;;
49384;SDS011;36795;45.028;38.968;2023-04-24T01:41:01;18.98;;;5.60;;
49384;SDS011;36795;45.028;38.968;2023-04-24T01:43:48;18.48;;;5.53;;
49384;SDS011;36795;45.028;38.968;2023-04-24T01:46:34;19.23;;;5.80;;
49384;SDS011;36795;45.028;38.968;2023-04-24T01:49:22;19.20;;;5.68;;
49384;SDS011;36795;45.028;38.968;2023-04-24T01:52:08;27.27;;;6.45;;
49384;SDS011;36795;45.028;38.968;2023-04-24T01:54:55;22.77;;;5.80;;
49384;SDS011;36795;45.028;38.968;2023-04-24T01:57:41;20.00;;;5.75;;
49384;SDS011;36795;45.028;38.968;2023-04-24T02:00:28;18.50;;;5.62;;
49384;SDS011;36795;45.028;38.968;2023-04-24T02:03:14;20.30;;;5.70;;
49384;SDS011;36795;45.028;38.968;2023-04-24T02:06:00;18.55;;;5.72;;
49384;SDS011;36795;45.028;38.968;2023-04-24T02:08:47;19.27;;;5.80;;
49384;SDS011;36795;45.028;38.968;2023-04-24T02:11:33;19.77;;;6.20;;
49384;SDS011;36795;45.028;38.968;2023-04-24T02:14:19;22.77;;;5.93;;
49384;SDS011;36795;45.028;38.968;2023-04-24T02:17:05;23.90;;;6.82;;
49384;SDS011;36795;45.028;38.968;2023-04-24T02:19:54;19.75;;;6.00;;
49384;SDS011;36795;45.028;38.968;2023-04-24T02:22:40;20.08;;;5.75;;
49384;SDS011;36795;45.028;38.968;2023-04-24T02:25:27;21.30;;;6.35;;
49384;SDS011;36795;45.028;38.968;2023-04-24T02:28:13;20.85;;;6.95;;
49384;SDS011;36795;45.028;38.968;2023-04-24T02:31:00;21.27;;;6.85;;
49384;SDS011;36795;45.028;38.968;2023-04-24T02:33:46;19.30;;;6.70;;
49384;SDS011;36795;45.028;38.968;2023-04-24T02:36:32;20.77;;;6.72;;
49384;SDS011;36795;45.028;38.968;2023-04-24T02:39:18;18.40;;;6.07;;
49384;SDS011;36795;45.028;38.968;2023-04-24T02:42:05;21.95;;;8.75;;
49384;SDS011;36795;45.028;38.968;2023-04-24T02:44:53;21.30;;;5.93;;
49384;SDS011;36795;45.028;38.968;2023-04-24T02:47:39;20.75;;;6.15;;
49384;SDS011;36795;45.028;38.968;2023-04-24T02:50:25;23.45;;;6.93;;
49384;SDS011;36795;45.028;38.968;2023-04-24T02:53:12;35.80;;;9.15;;
49384;SDS011;36795;45.028;38.968;2023-04-24T02:55:58;21.65;;;6.72;;
49384;SDS011;36795;45.028;38.968;2023-04-24T02:58:45;20.58;;;6.25;;
49384;SDS011;36795;45.028;38.968;2023-04-24T03:01:31;21.37;;;6.22;;
49384;SDS011;36795;45.028;38.968;2023-04-24T03:04:17;24.10;;;6.62;;
49384;SDS011;36795;45.028;38.968;2023-04-24T03:07:06;22.40;;;6.55;;
49384;SDS011;36795;45.028;38.968;2023-04-24T03:09:55;22.05;;;6.57;;
49384;SDS011;36795;45.028;38.968;2023-04-24T03:12:42;22.52;;;6.93;;
49384;SDS011;36795;45.028;38.968;2023-04-24T03:15:29;28.40;;;10.40;;
49384;SDS011;36795;45.028;38.968;2023-04-24T03:18:15;21.52;;;7.05;;
49384;SDS011;36795;45.028;38.968;2023-04-24T03:21:02;26.10;;;7.32;;
49384;SDS011;36795;45.028;38.968;2023-04-24T03:23:48;24.77;;;6.97;;
49384;SDS011;36795;45.028;38.968;2023-04-24T03:26:35;25.00;;;8.15;;
49384;SDS011;36795;45.028;38.968;2023-04-24T03:29:22;24.92;;;7.30;;
49384;SDS011;36795;45.028;38.968;2023-04-24T03:32:08;21.15;;;7.15;;
49384;SDS011;36795;45.028;38.968;2023-04-24T03:34:55;22.80;;;7.53;;
49384;SDS011;36795;45.028;38.968;2023-04-24T03:37:42;20.80;;;7.65;;
49384;SDS011;36795;45.028;38.968;2023-04-24T03:40:31;29.40;;;12.32;;
49384;SDS011;36795;45.028;38.968;2023-04-24T03:43:19;23.90;;;8.38;;
49384;SDS011;36795;45.028;38.968;2023-04-24T03:46:05;28.95;;;7.87;;
49384;SDS011;36795;45.028;38.968;2023-04-24T03:48:55;23.60;;;7.07;;
49384;SDS011;36795;45.028;38.968;2023-04-24T03:51:41;24.42;;;8.00;;
49384;SDS011;36795;45.028;38.968;2023-04-24T03:54:29;21.25;;;7.22;;
49384;SDS011;36795;45.028;38.968;2023-04-24T03:57:15;28.05;;;7.53;;
49384;SDS011;36795;45.028;38.968;2023-04-24T04:00:03;27.52;;;8.15;;
49384;SDS011;36795;45.028;38.968;2023-04-24T04:02:59;23.12;;;8.30;;
49384;SDS011;36795;45.028;38.968;2023-04-24T04:05:46;23.85;;;8.40;;
49384;SDS011;36795;45.028;38.968;2023-04-24T04:08:32;26.73;;;8.57;;
49384;SDS011;36795;45.028;38.968;2023-04-24T04:11:19;24.00;;;8.30;;
49384;SDS011;36795;45.028;38.968;2023-04-24T04:14:05;27.13;;;8.18;;
49384;SDS011;36795;45.028;38.968;2023-04-24T04:16:54;26.90;;;9.15;;
49384;SDS011;36795;45.028;38.968;2023-04-24T04:19:40;22.42;;;9.02;;
49384;SDS011;36795;45.028;38.968;2023-04-24T04:22:27;26.23;;;8.45;;
49384;SDS011;36795;45.028;38.968;2023-04-24T04:25:13;24.05;;;8.30;;
49384;SDS011;36795;45.028;38.968;2023-04-24T04:28:01;25.67;;;8.57;;
49384;SDS011;36795;45.028;38.968;2023-04-24T04:30:47;24.42;;;8.73;;
49384;SDS011;36795;45.028;38.968;2023-04-24T04:33:34;27.05;;;8.85;;
49384;SDS011;36795;45.028;38.968;2023-04-24T04:36:24;26.52;;;8.90;;
49384;SDS011;36795;45.028;38.968;2023-04-24T04:39:12;24.90;;;8.55;;
49384;SDS011;36795;45.028;38.968;2023-04-24T04:42:02;24.95;;;8.98;;
49384;SDS011;36795;45.028;38.968;2023-04-24T04:44:49;25.95;;;8.48;;
49384;SDS011;36795;45.028;38.968;2023-04-24T04:47:36;29.40;;;8.52;;
49384;SDS011;36795;45.028;38.968;2023-04-24T04:50:22;27.50;;;10.02;;
49384;SDS011;36795;45.028;38.968;2023-04-24T04:53:09;32.03;;;10.35;;
49384;SDS011;36795;45.028;38.968;2023-04-24T04:55:56;28.02;;;10.60;;
49384;SDS011;36795;45.028;38.968;2023-04-24T04:58:42;28.45;;;10.25;;
49384;SDS011;36795;45.028;38.968;2023-04-24T05:01:29;29.27;;;9.48;;
49384;SDS011;36795;45.028;38.968;2023-04-24T05:04:15;27.48;;;9.20;;
49384;SDS011;36795;45.028;38.968;2023-04-24T05:07:02;25.83;;;9.23;;
49384;SDS011;36795;45.028;38.968;2023-04-24T05:09:48;25.15;;;7.15;;
49384;SDS011;36795;45.028;38.968;2023-04-24T05:12:37;25.48;;;8.20;;
49384;SDS011;36795;45.028;38.968;2023-04-24T05:15:23;28.38;;;8.48;;
49384;SDS011;36795;45.028;38.968;2023-04-24T05:18:10;26.55;;;8.43;;
49384;SDS011;36795;45.028;38.968;2023-04-24T05:20:56;25.92;;;8.48;;
49384;SDS011;36795;45.028;38.968;2023-04-24T05:23:43;32.97;;;9.20;;
49384;SDS011;36795;45.028;38.968;2023-04-24T05:26:29;28.73;;;9.70;;
49384;SDS011;36795;45.028;38.968;2023-04-24T05:29:17;25.48;;;9.13;;
49384;SDS011;36795;45.028;38.968;2023-04-24T05:34:56;33.30;;;12.60;;
49384;SDS011;36795;45.028;38.968;2023-04-24T05:37:42;28.87;;;10.75;;
49384;SDS011;36795;45.028;38.968;2023-04-24T05:40:30;32.83;;;12.02;;
49384;SDS011;36795;45.028;38.968;2023-04-24T07:05:42;31.12;;;15.40;;
49384;SDS011;36795;45.028;38.968;2023-04-24T07:08:29;31.15;;;15.85;;
49384;SDS011;36795;45.028;38.968;2023-04-24T07:11:17;38.90;;;18.62;;
49384;SDS011;36795;45.028;38.968;2023-04-24T07:14:19;34.45;;;14.75;;
49384;SDS011;36795;45.028;38.968;2023-04-24T07:17:24;29.23;;;11.57;;
49384;SDS011;36795;45.028;38.968;2023-04-24T07:20:38;26.27;;;11.07;;
49384;SDS011;36795;45.028;38.968;2023-04-24T07:23:41;32.92;;;14.15;;
49384;SDS011;36795;45.028;38.968;2023-04-24T07:26:52;26.35;;;10.70;;
49384;SDS011;36795;45.028;38.968;2023-04-24T07:29:55;32.42;;;13.88;;
49384;SDS011;36795;45.028;38.968;2023-04-24T07:32:59;27.23;;;11.02;;
49384;SDS011;36795;45.028;38.968;2023-04-24T07:35:57;28.05;;;11.82;;
49384;SDS011;36795;45.028;38.968;2023-04-24T07:38:58;24.70;;;11.77;;
49384;SDS011;36795;45.028;38.968;2023-04-24T07:42:00;34.35;;;13.48;;
49384;SDS011;36795;45.028;38.968;2023-04-24T07:45:14;30.15;;;11.93;;
49384;SDS011;36795;45.028;38.968;2023-04-24T07:48:16;29.10;;;12.02;;
49384;SDS011;36795;45.028;38.968;2023-04-24T07:51:06;27.62;;;11.52;;
49384;SDS011;36795;45.028;38.968;2023-04-24T07:54:14;29.02;;;12.43;;
49384;SDS011;36795;45.028;38.968;2023-04-24T07:57:14;33.47;;;13.20;;
49384;SDS011;36795;45.028;38.968;2023-04-24T08:00:40;31.92;;;13.07;;
49384;SDS011;36795;45.028;38.968;2023-04-24T08:03:40;26.25;;;11.35;;
49384;SDS011;36795;45.028;38.968;2023-04-24T08:06:35;28.30;;;12.52;;
49384;SDS011;36795;45.028;38.968;2023-04-24T08:09:55;28.45;;;12.10;;
49384;SDS011;36795;45.028;38.968;2023-04-24T08:13:19;33.67;;;13.95;;
49384;SDS011;36795;45.028;38.968;2023-04-24T08:16:23;29.42;;;11.18;;
49384;SDS011;36795;45.028;38.968;2023-04-24T08:19:21;29.77;;;11.40;;
49384;SDS011;36795;45.028;38.968;2023-04-24T08:22:23;28.10;;;12.50;;
49384;SDS011;36795;45.028;38.968;2023-04-24T08:25:38;27.62;;;13.57;;
49384;SDS011;36795;45.028;38.968;2023-04-24T08:28:45;31.17;;;12.93;;
49384;SDS011;36795;45.028;38.968;2023-04-24T08:31:49;28.65;;;13.30;;
49384;SDS011;36795;45.028;38.968;2023-04-24T08:34:50;31.17;;;13.93;;
49384;SDS011;36795;45.028;38.968;2023-04-24T08:37:52;30.23;;;13.98;;
49384;SDS011;36795;45.028;38.968;2023-04-24T08:41:06;29.90;;;13.25;;
49384;SDS011;36795;45.028;38.968;2023-04-24T08:43:57;28.95;;;13.65;;
49384;SDS011;36795;45.028;38.968;2023-04-24T08:47:01;31.00;;;13.73;;
49384;SDS011;36795;45.028;38.968;2023-04-24T08:50:02;32.80;;;13.48;;
49384;SDS011;36795;45.028;38.968;2023-04-24T08:53:34;35.97;;;14.32;;
49384;SDS011;36795;45.028;38.968;2023-04-24T08:56:26;26.75;;;13.62;;
49384;SDS011;36795;45.028;38.968;2023-04-24T08:59:22;32.78;;;14.50;;
49384;SDS011;36795;45.028;38.968;2023-04-24T09:02:35;31.62;;;14.73;;
49384;SDS011;36795;45.028;38.968;2023-04-24T09:05:47;29.27;;;14.93;;
49384;SDS011;36795;45.028;38.968;2023-04-24T09:08:46;30.45;;;14.45;;
49384;SDS011;36795;45.028;38.968;2023-04-24T09:11:56;29.27;;;14.23;;
49384;SDS011;36795;45.028;38.968;2023-04-24T09:15:01;32.13;;;16.40;;
49384;SDS011;36795;45.028;38.968;2023-04-24T09:18:22;32.67;;;16.73;;
49384;SDS011;36795;45.028;38.968;2023-04-24T09:21:22;33.90;;;18.08;;
49384;SDS011;36795;45.028;38.968;2023-04-24T09:24:26;34.75;;;17.67;;
49384;SDS011;36795;45.028;38.968;2023-04-24T09:27:27;34.83;;;19.23;;
49384;SDS011;36795;45.028;38.968;2023-04-24T09:30:25;33.67;;;18.45;;
49384;SDS011;36795;45.028;38.968;2023-04-24T09:33:18;34.08;;;18.23;;
49384;SDS011;36795;45.028;38.968;2023-04-24T09:36:36;33.80;;;17.58;;
49384;SDS011;36795;45.028;38.968;2023-04-24T09:39:36;32.33;;;18.02;;
49384;SDS011;36795;45.028;38.968;2023-04-24T09:42:30;31.75;;;16.25;;
49384;SDS011;36795;45.028;38.968;2023-04-24T09:45:36;32.42;;;16.02;;
49384;SDS011;36795;45.028;38.968;2023-04-24T09:48:44;31.37;;;15.48;;
49384;SDS011;36795;45.028;38.968;2023-04-24T09:52:03;30.88;;;15.63;;
49384;SDS011;36795;45.028;38.968;2023-04-24T09:55:00;28.67;;;15.15;;
49384;SDS011;36795;45.028;38.968;2023-04-24T09:57:59;29.65;;;15.10;;
49384;SDS011;36795;45.028;38.968;2023-04-24T10:01:04;31.15;;;16.00;;
49384;SDS011;36795;45.028;38.968;2023-04-24T10:04:22;29.25;;;15.55;;
49384;SDS011;36795;45.028;38.968;2023-04-24T10:07:21;26.80;;;13.55;;
49384;SDS011;36795;45.028;38.968;2023-04-24T10:10:24;29.42;;;14.23;;
49384;SDS011;36795;45.028;38.968;2023-04-24T10:13:31;29.48;;;14.75;;
49384;SDS011;36795;45.028;38.968;2023-04-24T10:16:41;38.50;;;15.02;;
49384;SDS011;36795;45.028;38.968;2023-04-24T10:19:35;29.63;;;15.00;;
49384;SDS011;36795;45.028;38.968;2023-04-24T10:22:53;25.50;;;12.80;;
49384;SDS011;36795;45.028;38.968;2023-04-24T10:25:58;29.75;;;14.82;;
49384;SDS011;36795;45.028;38.968;2023-04-24T10:28:57;28.45;;;14.70;;
49384;SDS011;36795;45.028;38.968;2023-04-24T10:35:00;26.83;;;12.80;;
49384;SDS011;36795;45.028;38.968;2023-04-24T10:38:01;28.35;;;15.10;;
49384;SDS011;36795;45.028;38.968;2023-04-24T10:41:11;29.00;;;14.48;;
49384;SDS011;36795;45.028;38.968;2023-04-24T10:44:24;29.50;;;14.05;;
49384;SDS011;36795;45.028;38.968;2023-04-24T10:47:41;30.75;;;13.55;;
49384;SDS011;36795;45.028;38.968;2023-04-24T10:53:51;29.45;;;14.73;;
49384;SDS011;36795;45.028;38.968;2023-04-24T10:57:44;29.55;;;14.60;;
49384;SDS011;36795;45.028;38.968;2023-04-24T11:00:19;28.85;;;14.13;;
49384;SDS011;36795;45.028;38.968;2023-04-24T11:03:33;31.58;;;14.52;;
49384;SDS011;36795;45.028;38.968;2023-04-24T11:06:44;29.85;;;14.50;;
49384;SDS011;36795;45.028;38.968;2023-04-24T11:09:57;34.30;;;14.87;;
49384;SDS011;36795;45.028;38.968;2023-04-24T11:13:01;30.95;;;15.40;;
49384;SDS011;36795;45.028;38.968;2023-04-24T11:16:13;30.83;;;14.87;;
49384;SDS011;36795;45.028;38.968;2023-04-24T11:19:33;30.48;;;14.52;;
49384;SDS011;36795;45.028;38.968;2023-04-24T11:22:27;31.92;;;15.48;;
49384;SDS011;36795;45.028;38.968;2023-04-24T11:25:41;32.95;;;15.93;;
49384;SDS011;36795;45.028;38.968;2023-04-24T11:28:47;31.42;;;17.20;;
49384;SDS011;36795;45.028;38.968;2023-04-24T11:31:53;30.17;;;15.55;;
49384;SDS011;36795;45.028;38.968;2023-04-24T11:34:50;31.10;;;14.95;;
49384;SDS011;36795;45.028;38.968;2023-04-24T11:37:50;29.75;;;16.77;;
49384;SDS011;36795;45.028;38.968;2023-04-24T11:40:54;29.85;;;16.23;;
49384;SDS011;36795;45.028;38.968;2023-04-24T11:44:06;31.15;;;16.92;;
49384;SDS011;36795;45.028;38.968;2023-04-24T11:47:06;31.70;;;16.15;;
49384;SDS011;36795;45.028;38.968;2023-04-24T11:50:18;32.05;;;16.55;;
49384;SDS011;36795;45.028;38.968;2023-04-24T11:53:21;31.47;;;16.07;;
49384;SDS011;36795;45.028;38.968;2023-04-24T11:56:22;30.20;;;16.20;;
49384;SDS011;36795;45.028;38.968;2023-04-24T11:59:26;36.58;;;18.42;;
49384;SDS011;36795;45.028;38.968;2023-04-24T12:02:38;30.90;;;16.85;;
49384;SDS011;36795;45.028;38.968;2023-04-24T12:05:40;30.12;;;15.88;;
49384;SDS011;36795;45.028;38.968;2023-04-24T12:08:48;34.22;;;17.05;;
49384;SDS011;36795;45.028;38.968;2023-04-24T12:12:16;29.52;;;14.75;;
49384;SDS011;36795;45.028;38.968;2023-04-24T12:15:26;31.08;;;16.00;;
49384;SDS011;36795;45.028;38.968;2023-04-24T12:18:33;31.60;;;16.02;;
49384;SDS011;36795;45.028;38.968;2023-04-24T12:21:46;29.55;;;16.05;;
49384;SDS011;36795;45.028;38.968;2023-04-24T12:25:03;29.17;;;16.50;;
49384;SDS011;36795;45.028;38.968;2023-04-24T12:34:23;32.88;;;16.58;;
49384;SDS011;36795;45.028;38.968;2023-04-24T12:37:33;33.00;;;16.37;;
49384;SDS011;36795;45.028;38.968;2023-04-24T12:40:36;31.23;;;15.43;;
49384;SDS011;36795;45.028;38.968;2023-04-24T12:43:58;31.48;;;15.98;;
49384;SDS011;36795;45.028;38.968;2023-04-24T12:47:02;31.27;;;15.98;;
49384;SDS011;36795;45.028;38.968;2023-04-24T12:50:14;32.22;;;16.37;;
49384;SDS011;36795;45.028;38.968;2023-04-24T12:53:18;30.02;;;15.00;;
49384;SDS011;36795;45.028;38.968;2023-04-24T12:56:30;29.30;;;15.55;;
49384;SDS011;36795;45.028;38.968;2023-04-24T12:59:24;30.90;;;15.95;;
49384;SDS011;36795;45.028;38.968;2023-04-24T13:02:24;29.40;;;16.33;;
49384;SDS011;36795;45.028;38.968;2023-04-24T13:05:29;29.48;;;15.40;;
49384;SDS011;36795;45.028;38.968;2023-04-24T13:08:37;32.88;;;16.92;;
49384;SDS011;36795;45.028;38.968;2023-04-24T13:11:35;31.42;;;15.90;;
49384;SDS011;36795;45.028;38.968;2023-04-24T13:14:47;29.50;;;16.15;;
49384;SDS011;36795;45.028;38.968;2023-04-24T13:17:49;34.25;;;16.55;;
49384;SDS011;36795;45.028;38.968;2023-04-24T13:20:47;32.60;;;16.33;;
49384;SDS011;36795;45.028;38.968;2023-04-24T13:23:49;33.28;;;16.77;;
49384;SDS011;36795;45.028;38.968;2023-04-24T13:26:51;33.22;;;15.73;;
49384;SDS011;36795;45.028;38.968;2023-04-24T13:29:55;31.42;;;16.77;;
49384;SDS011;36795;45.028;38.968;2023-04-24T13:33:06;30.73;;;15.73;;
49384;SDS011;36795;45.028;38.968;2023-04-24T13:36:03;32.58;;;16.20;;
49384;SDS011;36795;45.028;38.968;2023-04-24T13:39:07;32.22;;;16.27;;
49384;SDS011;36795;45.028;38.968;2023-04-24T13:42:10;32.40;;;17.33;;
49384;SDS011;36795;45.028;38.968;2023-04-24T13:45:12;31.60;;;16.87;;
49384;SDS011;36795;45.028;38.968;2023-04-24T13:48:12;34.47;;;18.15;;
49384;SDS011;36795;45.028;38.968;2023-04-24T13:51:23;35.63;;;17.70;;
49384;SDS011;36795;45.028;38.968;2023-04-24T13:57:34;34.28;;;16.65;;
49384;SDS011;36795;45.028;38.968;2023-04-24T14:00:47;30.00;;;16.75;;
49384;SDS011;36795;45.028;38.968;2023-04-24T14:03:48;33.38;;;18.00;;
49384;SDS011;36795;45.028;38.968;2023-04-24T14:06:50;29.77;;;15.10;;
49384;SDS011;36795;45.028;38.968;2023-04-24T14:09:57;33.97;;;17.25;;
49384;SDS011;36795;45.028;38.968;2023-04-24T14:13:11;31.58;;;16.02;;
49384;SDS011;36795;45.028;38.968;2023-04-24T14:16:19;32.90;;;17.52;;
49384;SDS011;36795;45.028;38.968;2023-04-24T14:19:12;31.25;;;16.83;;
49384;SDS011;36795;45.028;38.968;2023-04-24T14:22:10;31.80;;;17.00;;
49384;SDS011;36795;45.028;38.968;2023-04-24T14:25:08;32.80;;;17.08;;
49384;SDS011;36795;45.028;38.968;2023-04-24T14:28:19;35.60;;;17.45;;
49384;SDS011;36795;45.028;38.968;2023-04-24T14:31:18;34.03;;;19.08;;
49384;SDS011;36795;45.028;38.968;2023-04-24T14:34:13;28.00;;;16.55;;
49384;SDS011;36795;45.028;38.968;2023-04-24T14:37:18;29.30;;;17.02;;
49384;SDS011;36795;45.028;38.968;2023-04-24T14:40:20;34.80;;;18.92;;
49384;SDS011;36795;45.028;38.968;2023-04-24T14:43:18;34.25;;;19.40;;
49384;SDS011;36795;45.028;38.968;2023-04-24T14:46:27;34.05;;;19.02;;
49384;SDS011;36795;45.028;38.968;2023-04-24T14:49:27;33.33;;;18.15;;
49384;SDS011;36795;45.028;38.968;2023-04-24T14:52:31;33.05;;;18.05;;
49384;SDS011;36795;45.028;38.968;2023-04-24T14:55:54;33.72;;;18.27;;
49384;SDS011;36795;45.028;38.968;2023-04-24T14:59:02;35.58;;;19.20;;
49384;SDS011;36795;45.028;38.968;2023-04-24T15:02:23;33.80;;;17.75;;
49384;SDS011;36795;45.028;38.968;2023-04-24T15:05:35;32.55;;;16.60;;
49384;SDS011;36795;45.028;38.968;2023-04-24T15:08:27;33.03;;;17.02;;
49384;SDS011;36795;45.028;38.968;2023-04-24T15:11:23;31.90;;;17.12;;
49384;SDS011;36795;45.028;38.968;2023-04-24T15:14:21;37.80;;;17.10;;
49384;SDS011;36795;45.028;38.968;2023-04-24T15:17:34;36.85;;;17.40;;
49384;SDS011;36795;45.028;38.968;2023-04-24T15:20:28;29.92;;;14.75;;
49384;SDS011;36795;45.028;38.968;2023-04-24T15:23:34;29.75;;;14.27;;
49384;SDS011;36795;45.028;38.968;2023-04-24T15:26:29;31.62;;;15.90;;
49384;SDS011;36795;45.028;38.968;2023-04-24T15:29:42;32.35;;;15.50;;
49384;SDS011;36795;45.028;38.968;2023-04-24T15:32:41;34.20;;;14.68;;
49384;SDS011;36795;45.028;38.968;2023-04-24T15:35:41;36.35;;;14.50;;
49384;SDS011;36795;45.028;38.968;2023-04-24T15:38:44;31.17;;;14.65;;
49384;SDS011;36795;45.028;38.968;2023-04-24T15:41:42;33.08;;;14.23;;
49384;SDS011;36795;45.028;38.968;2023-04-24T15:44:38;30.25;;;15.20;;
49384;SDS011;36795;45.028;38.968;2023-04-24T15:47:29;28.73;;;14.27;;
49384;SDS011;36795;45.028;38.968;2023-04-24T15:50:28;33.08;;;15.68;;
49384;SDS011;36795;45.028;38.968;2023-04-24T15:53:33;34.28;;;15.45;;
49384;SDS011;36795;45.028;38.968;2023-04-24T15:56:41;28.67;;;12.63;;
49384;SDS011;36795;45.028;38.968;2023-04-24T15:59:42;27.55;;;13.52;;
49384;SDS011;36795;45.028;38.968;2023-04-24T16:02:39;25.50;;;11.12;;
49384;SDS011;36795;45.028;38.968;2023-04-24T16:05:37;29.70;;;11.30;;
49384;SDS011;36795;45.028;38.968;2023-04-24T16:11:37;25.02;;;10.27;;
49384;SDS011;36795;45.028;38.968;2023-04-24T16:14:37;23.38;;;10.43;;
49384;SDS011;36795;45.028;38.968;2023-04-24T16:17:48;28.52;;;14.45;;
49384;SDS011;36795;45.028;38.968;2023-04-24T16:20:51;25.65;;;10.20;;
49384;SDS011;36795;45.028;38.968;2023-04-24T16:23:57;26.62;;;11.32;;
49384;SDS011;36795;45.028;38.968;2023-04-24T16:26:55;28.95;;;10.25;;
49384;SDS011;36795;45.028;38.968;2023-04-24T16:29:53;23.65;;;10.40;;
49384;SDS011;36795;45.028;38.968;2023-04-24T16:33:09;24.35;;;9.13;;
49384;SDS011;36795;45.028;38.968;2023-04-24T16:36:10;25.00;;;9.90;;
49384;SDS011;36795;45.028;38.968;2023-04-24T16:39:02;25.10;;;9.40;;
49384;SDS011;36795;45.028;38.968;2023-04-24T16:42:02;24.02;;;9.23;;
49384;SDS011;36795;45.028;38.968;2023-04-24T16:45:12;22.62;;;8.85;;
49384;SDS011;36795;45.028;38.968;2023-04-24T16:48:05;22.98;;;9.38;;
49384;SDS011;36795;45.028;38.968;2023-04-24T16:51:04;25.50;;;8.75;;
49384;SDS011;36795;45.028;38.968;2023-04-24T16:53:59;21.00;;;7.72;;
49384;SDS011;36795;45.028;38.968;2023-04-24T16:56:54;19.87;;;7.25;;
49384;SDS011;36795;45.028;38.968;2023-04-24T16:59:52;23.83;;;8.20;;
49384;SDS011;36795;45.028;38.968;2023-04-24T17:02:45;24.77;;;8.73;;
49384;SDS011;36795;45.028;38.968;2023-04-24T17:05:50;20.95;;;7.78;;
49384;SDS011;36795;45.028;38.968;2023-04-24T17:08:45;18.67;;;5.62;;
49384;SDS011;36795;45.028;38.968;2023-04-24T17:11:51;23.17;;;7.05;;
49384;SDS011;36795;45.028;38.968;2023-04-24T17:14:48;19.90;;;7.23;;
49384;SDS011;36795;45.028;38.968;2023-04-24T17:17:48;21.05;;;7.00;;
49384;SDS011;36795;45.028;38.968;2023-04-24T17:20:41;20.58;;;6.47;;
49384;SDS011;36795;45.028;38.968;2023-04-24T17:23:38;20.73;;;6.85;;
49384;SDS011;36795;45.028;38.968;2023-04-24T17:26:44;18.42;;;6.35;;
49384;SDS011;36795;45.028;38.968;2023-04-24T17:29:41;17.73;;;6.28;;
49384;SDS011;36795;45.028;38.968;2023-04-24T17:32:55;19.52;;;6.15;;
49384;SDS011;36795;45.028;38.968;2023-04-24T17:36:09;19.95;;;6.18;;
49384;SDS011;36795;45.028;38.968;2023-04-24T17:39:06;20.42;;;6.62;;
49384;SDS011;36795;45.028;38.968;2023-04-24T17:42:03;19.35;;;6.25;;
49384;SDS011;36795;45.028;38.968;2023-04-24T17:45:10;21.52;;;6.60;;
49384;SDS011;36795;45.028;38.968;2023-04-24T17:48:17;18.92;;;6.60;;
49384;SDS011;36795;45.028;38.968;2023-04-24T17:51:36;17.08;;;5.70;;
49384;SDS011;36795;45.028;38.968;2023-04-24T17:54:34;17.83;;;6.00;;
49384;SDS011;36795;45.028;38.968;2023-04-24T17:57:41;15.60;;;5.65;;
49384;SDS011;36795;45.028;38.968;2023-04-24T18:00:39;14.60;;;4.47;;
49384;SDS011;36795;45.028;38.968;2023-04-24T18:03:43;16.67;;;5.20;;
49384;SDS011;36795;45.028;38.968;2023-04-24T18:06:35;16.02;;;5.18;;
49384;SDS011;36795;45.028;38.968;2023-04-24T18:09:36;14.73;;;4.47;;
49384;SDS011;36795;45.028;38.968;2023-04-24T18:12:46;14.13;;;3.95;;
49384;SDS011;36795;45.028;38.968;2023-04-24T18:15:42;15.32;;;4.80;;
49384;SDS011;36795;45.028;38.968;2023-04-24T18:18:38;11.65;;;3.30;;
49384;SDS011;36795;45.028;38.968;2023-04-24T18:21:58;7.15;;;2.92;;
49384;SDS011;36795;45.028;38.968;2023-04-24T18:24:51;12.68;;;3.08;;
49384;SDS011;36795;45.028;38.968;2023-04-24T18:27:51;10.70;;;3.20;;
49384;SDS011;36795;45.028;38.968;2023-04-24T18:30:47;15.65;;;3.60;;
49384;SDS011;36795;45.028;38.968;2023-04-24T18:33:39;10.38;;;3.25;;
49384;SDS011;36795;45.028;38.968;2023-04-24T18:36:32;11.30;;;3.40;;
49384;SDS011;36795;45.028;38.968;2023-04-24T18:39:32;9.88;;;3.20;;
49384;SDS011;36795;45.028;38.968;2023-04-24T18:42:34;8.90;;;3.05;;
49384;SDS011;36795;45.028;38.968;2023-04-24T18:45:55;12.15;;;3.47;;
49384;SDS011;36795;45.028;38.968;2023-04-24T18:48:56;10.07;;;3.30;;
49384;SDS011;36795;45.028;38.968;2023-04-24T18:51:53;12.05;;;3.78;;
49384;SDS011;36795;45.028;38.968;2023-04-24T18:54:49;9.52;;;3.03;;
49384;SDS011;36795;45.028;38.968;2023-04-24T18:57:56;12.37;;;3.37;;